Terminal Aerodrome Forecast
Issued by NWS

Home | Current Version | Previous Version | Graphics & Text | Print | Product List | Glossary On
Versions: 1 2 3 4 5 6 7 8 9 10 11 12 13 14 15 16 17 18 19 20 21
000
FTUS43 KGRB 240500
TAFAUW
TAF
KAUW 240520Z 2406/2506 28008KT P6SM BKN028
      TEMPO 2406/2409 6SM BR SCT028 BKN060
     FM240900 28006KT P6SM BKN025
      TEMPO 2409/2413 6SM BR SCT025
     FM241500 30007KT P6SM SCT018 BKN025
     FM250200 04007KT 4SM -SN BKN018 OVC030
     FM250500 07009KT P6SM -SN BKN016 OVC028=

USA.gov is the U.S. government's official web portal to all federal, state and local government web resources and services.